createdAt,value
2023-01-22T00:03:54.892Z,27.74
2023-01-22T00:09:16.667Z,27.52
2023-01-22T00:14:38.374Z,27.79
2023-01-22T00:20:00.172Z,27.77
2023-01-22T00:25:21.907Z,27.65
2023-01-22T00:30:43.706Z,27.77
2023-01-22T00:36:11.265Z,27.92
2023-01-22T00:41:32.984Z,28.05
2023-01-22T00:46:54.693Z,27.84
2023-01-22T00:52:16.443Z,27.87
2023-01-22T00:57:38.194Z,27.65
2023-01-22T01:03:18.554Z,27.95
2023-01-22T01:08:42.614Z,28.08
2023-01-22T01:14:04.905Z,27.64
2023-01-22T01:19:26.602Z,27.72
2023-01-22T01:24:48.614Z,28.10
2023-01-22T01:30:10.826Z,27.88
2023-01-22T01:35:32.671Z,27.96
2023-01-22T01:40:54.369Z,27.82
2023-01-22T01:46:23.126Z,28.03
2023-01-22T01:51:45.824Z,28.03
2023-01-22T01:57:12.784Z,27.89
2023-01-22T02:02:34.492Z,28.01
2023-01-22T02:07:56.384Z,27.82
2023-01-22T02:13:26.310Z,27.57
2023-01-22T02:18:48.188Z,27.86
2023-01-22T02:24:15.051Z,27.83
2023-01-22T02:29:37.131Z,27.67
2023-01-22T02:34:59.148Z,27.45
2023-01-22T02:40:21.129Z,27.84
2023-01-22T02:45:43.131Z,27.65
2023-01-22T02:51:05.460Z,27.92
2023-01-22T02:56:27.291Z,27.97
2023-01-22T03:01:49.164Z,27.56
2023-01-22T03:07:10.889Z,27.91
2023-01-22T03:12:51.020Z,27.86
2023-01-22T03:18:32.364Z,27.75
2023-01-22T03:23:55.347Z,27.62
2023-01-22T03:29:17.144Z,27.83
2023-01-22T03:34:38.983Z,27.75
2023-01-22T03:40:00.748Z,27.64
2023-01-22T03:45:22.461Z,28.04
2023-01-22T03:50:44.146Z,27.94
2023-01-22T03:56:09.209Z,28.03
2023-01-22T04:01:31.119Z,28.30
2023-01-22T04:06:53.097Z,27.95
2023-01-22T04:12:14.803Z,28.37
2023-01-22T04:17:36.502Z,28.25
2023-01-22T04:22:58.285Z,28.42
2023-01-22T04:28:20.872Z,28.55
2023-01-22T04:33:42.570Z,28.12
2023-01-22T04:39:04.442Z,28.37
2023-01-22T04:44:26.190Z,28.40
2023-01-22T04:49:47.911Z,28.50
2023-01-22T04:55:10.145Z,28.22
2023-01-22T05:00:31.954Z,28.26
2023-01-22T05:05:53.700Z,28.49
2023-01-22T05:11:15.468Z,28.27
2023-01-22T05:16:37.196Z,28.39
2023-01-22T05:21:58.895Z,28.43
2023-01-22T05:27:20.868Z,28.41
2023-01-22T05:32:42.592Z,28.17
2023-01-22T05:38:04.303Z,28.16
2023-01-22T05:43:25.976Z,28.18
2023-01-22T05:48:47.828Z,28.10
2023-01-22T05:54:10.266Z,28.08
2023-01-22T05:59:32.099Z,28.21
2023-01-22T06:04:54.079Z,28.13
2023-01-22T06:10:16.834Z,28.05
2023-01-22T06:15:39.384Z,28.05
2023-01-22T06:21:03.352Z,28.43
2023-01-22T06:26:25.062Z,28.22
2023-01-22T06:31:46.896Z,28.28
2023-01-22T06:37:09.251Z,28.15
2023-01-22T06:42:30.983Z,28.19
2023-01-22T06:47:52.702Z,28.05
2023-01-22T06:53:14.631Z,27.46
2023-01-22T06:58:36.368Z,26.55
2023-01-22T07:03:58.098Z,26.49
2023-01-22T07:09:19.992Z,26.24
2023-01-22T07:14:41.744Z,26.00
2023-01-22T07:20:04.997Z,26.38
2023-01-22T07:25:27.779Z,26.48
2023-01-22T07:30:49.949Z,26.59
2023-01-22T07:36:11.662Z,26.66
2023-01-22T07:41:33.397Z,26.86
2023-01-22T07:46:55.175Z,26.76
2023-01-22T07:52:16.984Z,27.11
2023-01-22T07:57:38.753Z,27.37
2023-01-22T08:03:00.729Z,27.11
2023-01-22T08:08:22.379Z,26.77
2023-01-22T08:13:44.121Z,26.52
2023-01-22T08:19:05.816Z,26.33
2023-01-22T08:24:27.654Z,26.67
2023-01-22T08:29:52.415Z,26.59
2023-01-22T08:35:14.309Z,26.28
2023-01-22T08:40:37.910Z,26.31
2023-01-22T08:45:59.942Z,26.07
2023-01-22T08:51:23.632Z,26.38
2023-01-22T08:56:45.426Z,26.34
2023-01-22T09:02:12.754Z,26.46
2023-01-22T09:07:34.578Z,26.43
2023-01-22T09:12:59.710Z,25.89
2023-01-22T09:18:21.435Z,25.90
2023-01-22T09:23:43.144Z,25.49
2023-01-22T09:29:06.089Z,25.08
2023-01-22T09:34:27.901Z,24.91
2023-01-22T09:39:50.675Z,24.68
2023-01-22T09:45:15.352Z,24.93
2023-01-22T09:50:38.147Z,24.78
2023-01-22T09:56:00.677Z,24.71
2023-01-22T10:01:23.618Z,24.70
2023-01-22T10:06:46.394Z,24.53
2023-01-22T10:12:13.984Z,24.31
2023-01-22T10:17:36.963Z,24.59
2023-01-22T10:23:09.070Z,24.39
2023-01-22T10:28:50.557Z,24.64
2023-01-22T10:34:21.444Z,24.44
2023-01-22T10:39:46.249Z,24.39
2023-01-22T10:45:19.554Z,23.73
2023-01-22T10:50:42.428Z,23.97
2023-01-22T10:56:08.270Z,23.74
2023-01-22T11:01:35.785Z,24.09
2023-01-22T11:07:07.256Z,24.09
2023-01-22T11:12:42.976Z,24.57
2023-01-22T11:18:07.498Z,24.44
2023-01-22T11:23:47.869Z,24.63
2023-01-22T11:29:31.233Z,24.36
2023-01-22T11:35:01.308Z,24.57
2023-01-22T11:40:31.055Z,24.82
2023-01-22T11:46:13.854Z,24.24
2023-01-22T11:52:16.829Z,24.48
2023-01-22T11:57:59.759Z,24.84
2023-01-22T12:03:39.676Z,25.01
2023-01-22T12:09:07.278Z,25.20
2023-01-22T12:14:51.021Z,25.08
2023-01-22T12:20:54.479Z,25.15
2023-01-22T12:26:31.902Z,25.60
2023-01-22T12:32:11.204Z,25.55
2023-01-22T12:37:45.348Z,26.18
2023-01-22T12:43:08.003Z,26.23
2023-01-22T12:48:47.137Z,26.56
2023-01-22T12:54:28.493Z,26.83
2023-01-22T12:59:55.541Z,26.97
2023-01-22T13:05:20.421Z,26.84
2023-01-22T13:10:56.642Z,27.31
2023-01-22T13:16:36.570Z,27.17
2023-01-22T13:22:00.884Z,26.81
2023-01-22T13:27:32.489Z,26.63
2023-01-22T13:33:15.416Z,26.52
2023-01-22T13:38:37.954Z,26.32
2023-01-22T13:43:59.911Z,26.24
2023-01-22T13:49:25.702Z,26.01
2023-01-22T13:55:16.073Z,25.58
2023-01-22T14:00:37.842Z,26.11
2023-01-22T14:06:14.845Z,25.62
2023-01-22T14:11:40.796Z,25.67
2023-01-22T14:17:02.508Z,25.66
2023-01-22T14:22:24.739Z,26.02
2023-01-22T14:27:50.208Z,26.07
2023-01-22T14:33:23.241Z,26.57
2023-01-22T14:38:46.087Z,26.46
2023-01-22T14:44:08.486Z,26.20
2023-01-22T14:49:31.006Z,26.59
2023-01-22T14:54:52.791Z,26.70
2023-01-22T15:00:17.236Z,26.80
2023-01-22T15:05:39.096Z,27.12
2023-01-22T15:11:01.582Z,26.92
2023-01-22T15:16:23.309Z,26.69
2023-01-22T15:21:45.296Z,26.93
2023-01-22T15:27:07.826Z,27.09
2023-01-22T15:32:30.023Z,27.05
2023-01-22T15:37:51.760Z,27.42
2023-01-22T15:43:13.542Z,26.85
2023-01-22T15:48:37.273Z,26.62
2023-01-22T15:54:02.453Z,26.52
2023-01-22T15:59:24.288Z,25.84
2023-01-22T16:04:46.033Z,26.11
2023-01-22T16:10:08.067Z,26.10
2023-01-22T16:15:29.749Z,25.77
2023-01-22T16:20:51.570Z,26.33
2023-01-22T16:26:19.107Z,26.29
2023-01-22T16:31:41.232Z,26.18
2023-01-22T16:37:05.913Z,26.41
2023-01-22T16:42:27.653Z,26.34
2023-01-22T16:47:49.625Z,26.12
2023-01-22T16:53:11.342Z,26.27
2023-01-22T16:58:33.087Z,26.93
2023-01-22T17:03:54.919Z,26.68
2023-01-22T17:09:24.656Z,27.55
2023-01-22T17:14:48.419Z,27.70
2023-01-22T17:20:10.949Z,27.56
2023-01-22T17:25:32.679Z,27.94
2023-01-22T17:30:55.479Z,28.13
2023-01-22T17:36:22.702Z,27.75
2023-01-22T17:41:45.178Z,28.05
2023-01-22T17:47:06.919Z,28.27
2023-01-22T17:52:28.582Z,28.08
2023-01-22T17:57:54.762Z,28.43
2023-01-22T18:03:16.605Z,28.28
2023-01-22T18:08:40.049Z,28.41
2023-01-22T18:14:05.735Z,28.63
2023-01-22T18:19:27.797Z,28.45
2023-01-22T18:24:49.876Z,28.62
2023-01-22T18:30:12.183Z,28.65
2023-01-22T18:35:34.951Z,28.92
2023-01-22T18:40:57.047Z,28.79
2023-01-22T18:46:19.443Z,28.72
2023-01-22T18:51:42.266Z,28.57
2023-01-22T18:57:04.065Z,28.60
2023-01-22T19:02:25.819Z,28.23
2023-01-22T19:07:47.547Z,28.18
2023-01-22T19:13:09.593Z,27.91
2023-01-22T19:18:31.959Z,27.89
2023-01-22T19:23:59.224Z,27.57
2023-01-22T19:29:23.887Z,28.08
2023-01-22T19:34:45.750Z,28.08
2023-01-22T19:40:09.215Z,27.86
2023-01-22T19:45:31.004Z,28.21
2023-01-22T19:51:02.174Z,28.04
2023-01-22T19:56:26.419Z,28.28
2023-01-22T20:01:49.430Z,28.21
2023-01-22T20:07:11.471Z,28.95
2023-01-22T20:12:33.280Z,28.93
2023-01-22T20:17:54.973Z,28.75
2023-01-22T20:23:16.712Z,28.88
2023-01-22T20:28:39.745Z,29.32
2023-01-22T20:34:03.270Z,29.81
2023-01-22T20:39:25.263Z,29.44
2023-01-22T20:44:47.101Z,29.94
2023-01-22T20:50:09.431Z,30.05
2023-01-22T20:55:31.157Z,30.37
2023-01-22T21:00:52.902Z,30.17
2023-01-22T21:06:16.689Z,29.95
2023-01-22T21:11:40.398Z,30.48
2023-01-22T21:17:02.213Z,30.16
2023-01-22T21:22:24.023Z,30.37
2023-01-22T21:27:45.825Z,30.25
2023-01-22T21:33:07.604Z,30.52
2023-01-22T21:38:29.467Z,30.67
2023-01-22T21:44:09.839Z,30.75
2023-01-22T21:49:32.983Z,30.53
2023-01-22T21:54:54.729Z,30.18
2023-01-22T22:00:18.980Z,30.01
2023-01-22T22:05:42.323Z,30.08
2023-01-22T22:11:04.827Z,30.40
2023-01-22T22:16:28.053Z,30.21
2023-01-22T22:21:51.242Z,30.12
2023-01-22T22:27:13.374Z,30.40
2023-01-22T22:32:35.036Z,30.04
2023-01-22T22:37:57.091Z,29.92
2023-01-22T22:43:18.928Z,29.94
2023-01-22T22:48:41.219Z,30.43
2023-01-22T22:54:06.449Z,29.94
2023-01-22T22:59:28.152Z,30.46
2023-01-22T23:04:50.272Z,30.18
2023-01-22T23:10:28.916Z,30.26
2023-01-22T23:15:50.750Z,30.01
2023-01-22T23:21:17.676Z,29.81
2023-01-22T23:26:41.093Z,29.84
2023-01-22T23:32:03.006Z,30.21
2023-01-22T23:37:24.717Z,29.98
2023-01-22T23:42:50.235Z,29.94
2023-01-22T23:48:11.847Z,29.98
2023-01-22T23:53:40.267Z,29.91
2023-01-22T23:59:02.053Z,29.61
